createdAt,value
2017-11-08T00:00:15.354Z,28.63
2017-11-08T00:02:42.796Z,27.27
2017-11-08T00:05:10.223Z,28.60
2017-11-08T00:07:37.705Z,23.37
2017-11-08T00:10:05.157Z,26.50
2017-11-08T00:12:33.355Z,23.70
2017-11-08T00:15:13.550Z,26.30
2017-11-08T00:17:41.001Z,24.27
2017-11-08T00:20:08.495Z,28.83
2017-11-08T00:22:36.720Z,23.90
2017-11-08T00:25:04.165Z,24.33
2017-11-08T00:27:31.601Z,34.23
2017-11-08T00:29:59.080Z,26.10
2017-11-08T00:32:27.272Z,27.57
2017-11-08T00:34:55.481Z,21.40
2017-11-08T00:37:22.912Z,27.70
2017-11-08T00:39:50.365Z,26.00
2017-11-08T00:42:17.823Z,27.53
2017-11-08T00:44:45.237Z,26.63
2017-11-08T00:47:12.703Z,26.37
2017-11-08T00:49:40.168Z,27.63
2017-11-08T00:52:08.396Z,24.27
2017-11-08T00:54:35.917Z,23.40
2017-11-08T00:57:03.369Z,27.13
2017-11-08T00:59:30.821Z,28.43
2017-11-08T01:01:58.315Z,24.53
2017-11-08T01:04:25.752Z,26.63
2017-11-08T01:06:53.220Z,25.13
2017-11-08T01:09:20.675Z,29.40
2017-11-08T01:11:48.117Z,28.93
2017-11-08T01:14:15.564Z,28.67
2017-11-08T01:16:43.032Z,20.90
2017-11-08T01:19:10.489Z,30.23
2017-11-08T01:21:37.924Z,21.83
2017-11-08T01:24:05.369Z,25.60
2017-11-08T01:26:32.853Z,25.37
2017-11-08T01:29:00.304Z,26.33
2017-11-08T01:31:27.762Z,25.50
2017-11-08T01:33:55.200Z,28.33
2017-11-08T01:36:22.664Z,25.50
2017-11-08T01:38:50.101Z,25.47
2017-11-08T01:41:24.369Z,27.30
2017-11-08T01:43:54.249Z,27.80
2017-11-08T01:46:21.720Z,26.97
2017-11-08T01:48:49.180Z,27.67
2017-11-08T01:51:16.641Z,29.47
2017-11-08T01:53:44.073Z,30.90
2017-11-08T01:56:11.601Z,28.80
2017-11-08T01:58:39.070Z,26.20
2017-11-08T02:01:06.513Z,28.83
2017-11-08T02:03:33.961Z,27.90
2017-11-08T02:06:01.419Z,27.47
2017-11-08T02:08:28.858Z,25.23
2017-11-08T02:10:56.331Z,27.00
2017-11-08T02:13:23.787Z,24.97
2017-11-08T02:15:51.265Z,27.07
2017-11-08T02:18:21.528Z,24.90
2017-11-08T02:20:48.984Z,26.77
2017-11-08T02:23:16.424Z,25.43
2017-11-08T02:25:43.889Z,25.30
2017-11-08T02:28:11.325Z,24.57
2017-11-08T02:30:39.641Z,29.63
2017-11-08T02:33:07.102Z,33.07
2017-11-08T02:35:34.582Z,30.30
2017-11-08T02:38:02.044Z,26.20
2017-11-08T02:40:29.517Z,29.03
2017-11-08T02:42:56.959Z,31.23
2017-11-08T02:45:30.054Z,25.03
2017-11-08T02:47:57.500Z,30.90
2017-11-08T02:50:24.948Z,26.90
2017-11-08T02:52:52.403Z,27.40
2017-11-08T02:55:19.864Z,26.90
2017-11-08T02:57:47.314Z,26.33
2017-11-08T03:00:14.772Z,30.23
2017-11-08T03:02:47.951Z,32.27
2017-11-08T03:05:18.334Z,26.83
2017-11-08T03:07:45.785Z,24.20
2017-11-08T03:10:13.234Z,25.17
2017-11-08T03:12:40.667Z,26.50
2017-11-08T03:15:08.114Z,29.33
2017-11-08T03:17:35.574Z,26.63
2017-11-08T03:20:03.032Z,29.17
2017-11-08T03:22:30.522Z,28.20
2017-11-08T03:24:57.975Z,29.53
2017-11-08T03:27:25.424Z,29.90
2017-11-08T03:29:52.871Z,27.77
2017-11-08T03:32:26.258Z,24.47
2017-11-08T03:34:53.708Z,30.53
2017-11-08T03:37:21.153Z,29.47
2017-11-08T03:39:48.617Z,26.10
2017-11-08T03:42:16.078Z,28.67
2017-11-08T03:44:43.550Z,26.37
2017-11-08T03:47:11.049Z,30.63
2017-11-08T03:49:39.285Z,28.47
2017-11-08T03:52:06.750Z,30.13
2017-11-08T03:54:34.221Z,27.53
2017-11-08T03:57:01.675Z,34.70
2017-11-08T03:59:29.139Z,28.03
2017-11-08T04:01:56.591Z,31.70
2017-11-08T04:04:24.042Z,31.63
2017-11-08T04:06:51.477Z,33.47
2017-11-08T04:09:18.929Z,31.77
2017-11-08T04:11:46.392Z,29.87
2017-11-08T04:14:13.838Z,36.53
2017-11-08T04:16:41.291Z,35.67
2017-11-08T04:19:08.736Z,33.73
2017-11-08T04:21:36.173Z,30.93
2017-11-08T04:24:04.412Z,34.53
2017-11-08T04:26:31.875Z,34.10
2017-11-08T04:28:59.328Z,32.00
2017-11-08T04:31:26.790Z,31.33
2017-11-08T04:33:54.249Z,28.23
2017-11-08T04:36:21.712Z,37.63
2017-11-08T04:38:49.154Z,38.03
2017-11-08T04:41:16.624Z,27.13
2017-11-08T04:43:44.075Z,38.17
2017-11-08T04:46:11.551Z,35.83
2017-11-08T04:48:43.933Z,31.00
2017-11-08T04:51:12.164Z,32.57
2017-11-08T04:53:39.699Z,36.33
2017-11-08T04:56:07.156Z,34.67
2017-11-08T04:58:34.603Z,34.30
2017-11-08T05:01:02.049Z,33.67
2017-11-08T05:03:30.247Z,36.00
2017-11-08T05:05:57.733Z,46.17
2017-11-08T05:08:25.177Z,36.43
2017-11-08T05:10:52.621Z,34.20
2017-11-08T05:13:20.063Z,35.10
2017-11-08T05:15:47.506Z,33.40
2017-11-08T05:18:15.796Z,38.07
2017-11-08T05:20:43.228Z,34.90
2017-11-08T05:23:14.817Z,39.97
2017-11-08T05:25:42.246Z,42.03
2017-11-08T05:28:10.462Z,48.63
2017-11-08T05:30:37.912Z,35.47
2017-11-08T05:33:05.353Z,36.47
2017-11-08T05:35:32.845Z,45.03
2017-11-08T05:38:00.300Z,42.10
2017-11-08T05:40:27.749Z,39.23
2017-11-08T05:42:55.213Z,41.30
2017-11-08T05:45:22.746Z,40.43
2017-11-08T05:47:50.211Z,37.27
2017-11-08T05:50:17.745Z,37.57
2017-11-08T05:52:45.958Z,39.70
2017-11-08T05:55:13.419Z,43.90
2017-11-08T05:57:40.872Z,41.17
2017-11-08T06:00:08.327Z,39.93
2017-11-08T06:02:35.770Z,43.57
2017-11-08T06:05:03.416Z,43.73
2017-11-08T06:07:31.644Z,42.20
2017-11-08T06:09:59.074Z,48.00
2017-11-08T06:15:26.585Z,41.50
2017-11-08T06:17:54.036Z,47.03
2017-11-08T06:20:21.472Z,47.57
2017-11-08T06:22:49.013Z,45.50
2017-11-08T06:25:16.466Z,54.80
2017-11-08T06:27:43.900Z,47.63
2017-11-08T06:30:11.337Z,47.17
2017-11-08T06:32:38.805Z,48.03
2017-11-08T06:35:06.245Z,41.20
2017-11-08T06:37:33.709Z,48.43
2017-11-08T06:40:01.149Z,44.30
2017-11-08T06:42:28.602Z,47.40
2017-11-08T06:44:56.046Z,44.70
2017-11-08T06:47:23.510Z,46.73
2017-11-08T06:49:50.984Z,50.40
2017-11-08T06:52:18.426Z,50.60
2017-11-08T06:54:45.870Z,42.87
2017-11-08T06:57:13.316Z,58.73
2017-11-08T06:59:40.765Z,49.37
2017-11-08T07:02:08.201Z,47.20
2017-11-08T07:04:36.405Z,56.37
2017-11-08T07:07:03.842Z,52.93
2017-11-08T07:09:32.053Z,49.00
2017-11-08T07:11:59.513Z,53.77
2017-11-08T07:14:26.934Z,56.73
2017-11-08T07:17:00.007Z,49.50
2017-11-08T07:19:27.446Z,51.73
2017-11-08T07:22:07.773Z,50.67
2017-11-08T07:24:35.229Z,52.57
2017-11-08T07:27:02.683Z,41.33
2017-11-08T07:29:30.139Z,45.73
2017-11-08T07:31:57.574Z,43.60
2017-11-08T07:34:25.777Z,52.57
2017-11-08T07:36:53.229Z,49.83
2017-11-08T07:39:20.675Z,53.57
2017-11-08T07:41:48.123Z,57.20
2017-11-08T07:44:15.570Z,61.37
2017-11-08T07:46:43.812Z,50.90
2017-11-08T07:49:11.239Z,49.33
2017-11-08T07:51:38.670Z,45.47
2017-11-08T07:54:11.921Z,59.07
2017-11-08T07:56:39.381Z,55.53
2017-11-08T07:59:06.818Z,56.57
2017-11-08T08:01:34.278Z,49.33
2017-11-08T08:04:01.745Z,57.43
2017-11-08T08:06:29.186Z,68.30
2017-11-08T08:08:56.645Z,52.73
2017-11-08T08:11:36.705Z,54.73
2017-11-08T08:14:04.163Z,55.97
2017-11-08T08:16:31.611Z,54.17
2017-11-08T08:18:59.067Z,54.60
2017-11-08T08:21:26.496Z,53.93
2017-11-08T08:23:53.950Z,59.17
2017-11-08T08:26:21.391Z,53.10
2017-11-08T08:28:49.623Z,52.30
2017-11-08T08:31:17.067Z,56.80
2017-11-08T08:33:44.517Z,54.50
2017-11-08T08:36:12.961Z,59.60
2017-11-08T08:38:41.179Z,46.70
2017-11-08T08:41:08.629Z,51.20
2017-11-08T08:43:36.088Z,62.90
2017-11-08T08:46:03.522Z,51.80
2017-11-08T08:48:30.976Z,46.80
2017-11-08T08:50:59.182Z,44.90
2017-11-08T08:53:26.637Z,58.37
2017-11-08T08:55:54.097Z,52.77
2017-11-08T08:58:21.549Z,58.83
2017-11-08T09:00:49.017Z,48.63
2017-11-08T09:03:21.168Z,54.17
2017-11-08T09:05:48.649Z,53.83
2017-11-08T09:08:16.097Z,54.67
2017-11-08T09:10:43.557Z,47.50
2017-11-08T09:13:11.005Z,52.53
2017-11-08T09:15:38.455Z,53.40
2017-11-08T09:18:05.989Z,51.13
2017-11-08T09:20:33.441Z,49.13
2017-11-08T09:23:01.662Z,55.40
2017-11-08T09:25:30.898Z,57.77
2017-11-08T09:27:58.338Z,55.77
2017-11-08T09:30:25.794Z,52.17
2017-11-08T09:32:53.241Z,58.37
2017-11-08T09:35:23.453Z,53.13
2017-11-08T09:40:46.548Z,48.93
2017-11-08T09:43:19.822Z,57.40
2017-11-08T09:45:47.271Z,59.20
2017-11-08T09:48:14.745Z,53.00
2017-11-08T09:50:42.164Z,54.87
2017-11-08T09:53:17.161Z,58.03
2017-11-08T09:55:44.602Z,60.10
2017-11-08T09:58:12.050Z,65.33
2017-11-08T10:00:42.620Z,73.20
2017-11-08T10:03:10.834Z,54.00
2017-11-08T10:05:38.300Z,52.77
2017-11-08T10:08:05.730Z,55.57
2017-11-08T10:10:33.198Z,52.33
2017-11-08T10:13:06.262Z,60.37
2017-11-08T10:15:34.489Z,62.23
2017-11-08T10:18:02.034Z,52.70
2017-11-08T10:20:29.566Z,55.90
2017-11-08T10:23:00.837Z,52.47
2017-11-08T10:25:31.548Z,54.23
2017-11-08T10:27:59.821Z,65.77
2017-11-08T10:30:28.336Z,61.23
2017-11-08T10:32:55.874Z,54.70
2017-11-08T10:35:24.170Z,54.10
2017-11-08T10:37:51.718Z,56.20
2017-11-08T10:40:19.170Z,57.63
2017-11-08T10:42:46.573Z,50.50
2017-11-08T10:45:14.798Z,55.87
2017-11-08T10:47:42.259Z,65.00
2017-11-08T10:50:09.703Z,52.80
2017-11-08T10:52:40.084Z,53.90
2017-11-08T10:55:08.289Z,59.10
2017-11-08T10:57:35.766Z,54.70
2017-11-08T11:03:06.852Z,63.17
2017-11-08T11:05:34.316Z,57.57
2017-11-08T11:08:01.767Z,55.10
2017-11-08T11:10:29.249Z,73.87
2017-11-08T11:12:56.719Z,55.20
2017-11-08T11:15:24.925Z,63.67
2017-11-08T11:17:52.394Z,52.93
2017-11-08T11:20:19.850Z,53.73
2017-11-08T11:22:47.290Z,60.13
2017-11-08T11:25:16.674Z,67.13
2017-11-08T11:27:44.928Z,53.90
2017-11-08T11:30:12.385Z,62.20
2017-11-08T11:32:46.564Z,65.97
2017-11-08T11:35:14.007Z,58.40
2017-11-08T11:37:47.308Z,62.13
2017-11-08T11:40:14.806Z,62.03
2017-11-08T11:42:42.243Z,61.60
2017-11-08T11:45:09.699Z,61.97
2017-11-08T11:47:37.138Z,67.60
2017-11-08T11:50:04.684Z,59.67
2017-11-08T11:52:32.110Z,55.53
2017-11-08T11:55:00.335Z,60.20
2017-11-08T11:57:27.803Z,71.17
2017-11-08T11:59:55.292Z,71.83
2017-11-08T12:02:22.742Z,65.83
2017-11-08T12:04:50.215Z,68.00
2017-11-08T12:07:17.676Z,68.93
2017-11-08T12:09:45.126Z,62.93
2017-11-08T12:12:12.585Z,59.67
2017-11-08T12:14:40.031Z,79.40
2017-11-08T12:17:07.508Z,74.63
2017-11-08T12:19:37.870Z,73.67
2017-11-08T12:22:05.344Z,70.60
2017-11-08T12:24:32.778Z,66.03
2017-11-08T12:27:06.017Z,74.93
2017-11-08T12:29:36.059Z,65.93
2017-11-08T12:32:03.509Z,69.53
2017-11-08T12:34:30.948Z,68.53
2017-11-08T12:36:58.413Z,67.37
2017-11-08T12:39:33.551Z,68.93
2017-11-08T12:42:26.642Z,77.10
2017-11-08T12:45:09.066Z,71.97
2017-11-08T12:47:37.988Z,62.30
2017-11-08T12:50:05.452Z,68.40
2017-11-08T12:52:32.942Z,77.10
2017-11-08T12:55:05.011Z,73.53
2017-11-08T12:57:37.087Z,75.37
2017-11-08T13:00:04.588Z,65.20
2017-11-08T13:02:32.045Z,70.10
2017-11-08T13:04:59.494Z,77.93
2017-11-08T13:07:53.691Z,70.93
2017-11-08T13:10:30.676Z,65.97
2017-11-08T13:12:58.183Z,65.50
2017-11-08T13:15:26.406Z,71.33
2017-11-08T13:17:53.864Z,63.60
2017-11-08T13:20:21.334Z,65.90
2017-11-08T13:23:04.703Z,61.03
2017-11-08T13:25:33.168Z,54.90
2017-11-08T13:28:00.681Z,63.00
2017-11-08T13:30:32.073Z,62.60
2017-11-08T13:32:59.784Z,63.23
2017-11-08T13:35:27.234Z,62.77
2017-11-08T13:37:54.796Z,60.37
2017-11-08T13:40:22.268Z,62.30
2017-11-08T13:42:49.731Z,64.17
2017-11-08T13:45:17.173Z,64.63
2017-11-08T13:48:04.430Z,63.00
2017-11-08T13:50:31.888Z,62.00
2017-11-08T13:52:59.336Z,62.07
2017-11-08T13:55:26.791Z,61.43
2017-11-08T13:57:54.261Z,69.30
2017-11-08T14:00:21.747Z,63.87
2017-11-08T14:05:52.318Z,65.47
2017-11-08T14:08:19.782Z,57.77
2017-11-08T14:10:47.257Z,62.43
2017-11-08T14:13:28.427Z,65.43
2017-11-08T14:16:02.575Z,65.53
2017-11-08T14:18:30.031Z,66.47
2017-11-08T14:20:57.487Z,73.70
2017-11-08T14:23:24.944Z,78.27
2017-11-08T14:25:52.398Z,69.93
2017-11-08T14:28:25.049Z,68.87
2017-11-08T14:30:52.494Z,65.07
2017-11-08T14:33:19.930Z,68.60
2017-11-08T14:35:48.144Z,58.80
2017-11-08T14:38:15.604Z,64.23
2017-11-08T14:40:43.802Z,71.63
2017-11-08T14:43:11.248Z,68.87
2017-11-08T14:45:38.686Z,65.27
2017-11-08T14:48:06.138Z,72.17
2017-11-08T14:50:33.626Z,75.27
2017-11-08T14:53:06.604Z,62.13
2017-11-08T14:55:34.135Z,73.03
2017-11-08T14:58:02.349Z,70.97
2017-11-08T15:00:30.751Z,79.53
2017-11-08T15:02:58.206Z,74.47
2017-11-08T15:05:25.690Z,62.07
2017-11-08T15:07:53.168Z,76.00
2017-11-08T15:10:21.370Z,65.67
2017-11-08T15:12:48.823Z,68.00
2017-11-08T15:15:22.959Z,78.87
2017-11-08T15:17:50.448Z,68.17
2017-11-08T15:20:23.829Z,73.63
2017-11-08T15:22:51.285Z,75.03
2017-11-08T15:25:18.743Z,80.03
2017-11-08T15:27:46.188Z,88.70
2017-11-08T15:30:19.363Z,70.57
2017-11-08T15:32:46.820Z,79.47
2017-11-08T15:35:15.293Z,70.07
2017-11-08T15:37:42.767Z,79.73
2017-11-08T15:40:10.289Z,80.80
2017-11-08T15:42:38.534Z,71.87
2017-11-08T15:45:05.995Z,75.30
2017-11-08T15:47:48.182Z,73.30
2017-11-08T15:50:15.658Z,88.97
2017-11-08T15:52:43.094Z,69.87
2017-11-08T15:55:10.546Z,83.17
2017-11-08T15:57:38.021Z,70.87
2017-11-08T16:00:05.492Z,66.03
2017-11-08T16:02:32.916Z,79.77
2017-11-08T16:05:00.382Z,91.67
2017-11-08T16:07:27.830Z,72.20
2017-11-08T16:09:55.294Z,84.97
2017-11-08T16:12:22.759Z,93.83
2017-11-08T16:14:50.231Z,73.73
2017-11-08T16:17:17.722Z,78.40
2017-11-08T16:19:45.203Z,72.87
2017-11-08T16:22:13.786Z,91.90
2017-11-08T16:24:45.866Z,79.37
2017-11-08T16:27:27.869Z,90.93
2017-11-08T16:29:55.335Z,88.70
2017-11-08T16:32:25.384Z,91.20
2017-11-08T16:34:57.166Z,102.20
2017-11-08T16:37:30.048Z,84.10
2017-11-08T16:39:57.511Z,89.73
2017-11-08T16:42:24.943Z,93.53
2017-11-08T16:44:53.174Z,79.93
2017-11-08T16:47:23.968Z,81.57
2017-11-08T16:49:52.364Z,83.37
2017-11-08T16:52:19.816Z,88.33
2017-11-08T16:54:47.272Z,81.03
2017-11-08T16:57:14.747Z,79.87
2017-11-08T16:59:42.185Z,91.17
2017-11-08T17:02:09.654Z,80.90
2017-11-08T17:04:37.111Z,103.03
2017-11-08T17:07:04.542Z,80.03
2017-11-08T17:09:56.562Z,92.07
2017-11-08T17:12:24.819Z,90.77
2017-11-08T17:14:52.262Z,77.00
2017-11-08T17:17:19.714Z,79.00
2017-11-08T17:19:49.208Z,71.53
2017-11-08T17:22:16.648Z,84.17
2017-11-08T17:24:44.113Z,114.20
2017-11-08T17:27:11.593Z,82.97
2017-11-08T17:29:39.051Z,93.93
2017-11-08T17:32:14.933Z,99.90
2017-11-08T17:34:43.167Z,91.67
2017-11-08T17:37:10.612Z,93.17
2017-11-08T17:39:38.070Z,75.90
2017-11-08T17:42:05.510Z,84.63
2017-11-08T17:44:32.958Z,88.60
2017-11-08T17:47:00.396Z,89.10
2017-11-08T17:49:28.614Z,83.43
2017-11-08T17:51:56.050Z,79.07
2017-11-08T17:54:23.490Z,91.67
2017-11-08T17:56:51.747Z,79.37
2017-11-08T17:59:20.296Z,69.93
2017-11-08T18:01:47.747Z,74.80
2017-11-08T18:04:15.185Z,67.60
2017-11-08T18:06:42.624Z,64.37
2017-11-08T18:09:10.838Z,71.80
2017-11-08T18:11:38.286Z,67.27
2017-11-08T18:14:09.618Z,71.10
2017-11-08T18:16:39.003Z,62.73
2017-11-08T18:19:14.900Z,67.13
2017-11-08T18:21:43.359Z,69.47
2017-11-08T18:24:10.813Z,64.23
2017-11-08T18:26:38.425Z,65.63
2017-11-08T18:29:10.435Z,63.00
2017-11-08T18:31:37.886Z,64.10
2017-11-08T18:37:00.148Z,61.23
2017-11-08T18:39:27.614Z,56.63
2017-11-08T18:41:55.060Z,51.17
2017-11-08T18:44:22.523Z,56.47
2017-11-08T18:46:50.019Z,52.43
2017-11-08T18:49:17.474Z,54.37
2017-11-08T18:51:44.931Z,49.30
2017-11-08T18:54:12.385Z,60.37
2017-11-08T18:56:39.851Z,56.73
2017-11-08T18:59:13.778Z,57.07
2017-11-08T19:01:41.274Z,54.73
2017-11-08T19:04:08.756Z,48.33
2017-11-08T19:06:36.292Z,59.17
2017-11-08T19:09:03.779Z,49.10
2017-11-08T19:11:31.221Z,58.30
2017-11-08T19:14:03.506Z,65.63
2017-11-08T19:16:30.995Z,61.90
2017-11-08T19:19:04.734Z,62.57
2017-11-08T19:21:33.002Z,44.37
2017-11-08T19:24:01.265Z,48.40
2017-11-08T19:26:28.815Z,53.30
2017-11-08T19:29:00.208Z,64.20
2017-11-08T19:31:28.652Z,57.13
2017-11-08T19:33:56.107Z,55.50
2017-11-08T19:36:23.643Z,54.20
2017-11-08T19:38:51.137Z,63.40
2017-11-08T19:41:18.589Z,66.57
2017-11-08T19:43:46.050Z,49.23
2017-11-08T19:46:14.268Z,63.80
2017-11-08T19:48:41.707Z,48.47
2017-11-08T19:51:09.411Z,52.73
2017-11-08T19:53:36.844Z,50.07
2017-11-08T19:56:04.286Z,49.60
2017-11-08T19:58:31.727Z,56.40
2017-11-08T20:00:59.161Z,47.83
2017-11-08T20:03:28.686Z,49.93
2017-11-08T20:05:56.898Z,46.60
2017-11-08T20:08:25.450Z,49.60
2017-11-08T20:10:52.893Z,52.00
2017-11-08T20:13:20.322Z,51.37
2017-11-08T20:15:47.771Z,58.30
2017-11-08T20:18:15.211Z,53.10
2017-11-08T20:20:49.263Z,37.83
2017-11-08T20:23:23.885Z,46.50
2017-11-08T20:25:55.770Z,52.77
2017-11-08T20:28:24.011Z,44.27
2017-11-08T20:30:51.593Z,46.60
2017-11-08T20:33:19.051Z,51.57
2017-11-08T20:35:47.260Z,52.10
2017-11-08T20:38:14.697Z,49.57
2017-11-08T20:40:42.146Z,42.67
2017-11-08T20:43:10.354Z,54.90
2017-11-08T20:45:37.781Z,45.40
2017-11-08T20:48:06.050Z,47.20
2017-11-08T20:50:34.313Z,55.30
2017-11-08T20:53:01.751Z,46.57
2017-11-08T20:55:29.201Z,56.97
2017-11-08T20:57:56.670Z,56.17
2017-11-08T21:00:24.119Z,51.97
2017-11-08T21:02:51.636Z,52.80
2017-11-08T21:05:19.115Z,47.20
2017-11-08T21:07:46.547Z,38.03
2017-11-08T21:10:13.986Z,48.27
2017-11-08T21:12:42.192Z,50.87
2017-11-08T21:15:10.657Z,51.03
2017-11-08T21:17:38.095Z,45.93
2017-11-08T21:20:06.316Z,42.03
2017-11-08T21:22:33.773Z,47.23
2017-11-08T21:25:01.219Z,55.77
2017-11-08T21:27:28.666Z,50.73
2017-11-08T21:29:56.098Z,47.67
2017-11-08T21:32:24.314Z,38.97
2017-11-08T21:34:51.743Z,56.40
2017-11-08T21:37:19.963Z,65.80
2017-11-08T21:39:49.425Z,50.43
2017-11-08T21:42:16.869Z,47.83
2017-11-08T21:44:45.085Z,52.93
2017-11-08T21:47:12.516Z,46.40
2017-11-08T21:49:40.718Z,43.60
2017-11-08T21:52:08.159Z,46.67
2017-11-08T21:54:35.604Z,49.77
2017-11-08T21:57:03.807Z,46.70
2017-11-08T21:59:31.261Z,50.90
2017-11-08T22:01:59.013Z,42.33
2017-11-08T22:04:26.455Z,55.87
2017-11-08T22:06:54.647Z,48.10
2017-11-08T22:09:22.087Z,45.83
2017-11-08T22:11:50.325Z,42.60
2017-11-08T22:14:17.766Z,41.27
2017-11-08T22:16:45.207Z,40.00
2017-11-08T22:19:12.653Z,41.00
2017-11-08T22:21:40.082Z,31.83
2017-11-08T22:24:07.523Z,49.70
2017-11-08T22:26:34.995Z,38.93
2017-11-08T22:29:03.212Z,40.20
2017-11-08T22:31:30.771Z,45.97
2017-11-08T22:33:58.239Z,42.60
2017-11-08T22:36:25.685Z,37.00
2017-11-08T22:38:53.126Z,39.10
2017-11-08T22:41:20.605Z,41.00
2017-11-08T22:43:48.068Z,45.30
2017-11-08T22:46:15.502Z,41.97
2017-11-08T22:48:42.939Z,44.20
2017-11-08T22:51:11.169Z,55.00
2017-11-08T22:53:38.607Z,43.03
2017-11-08T22:56:06.046Z,38.07
2017-11-08T22:58:33.487Z,45.20
2017-11-08T23:01:00.921Z,59.70
2017-11-08T23:03:28.362Z,44.20
2017-11-08T23:05:58.935Z,46.50
2017-11-08T23:08:27.131Z,53.27
2017-11-08T23:10:54.579Z,41.10
2017-11-08T23:13:22.006Z,36.17
2017-11-08T23:15:50.209Z,46.33
2017-11-08T23:18:17.977Z,42.57
2017-11-08T23:20:45.446Z,45.70
2017-11-08T23:23:12.868Z,49.63
2017-11-08T23:25:41.099Z,40.73
2017-11-08T23:28:08.549Z,45.33
2017-11-08T23:30:35.992Z,40.30
2017-11-08T23:33:03.431Z,45.90
2017-11-08T23:35:30.883Z,45.90
2017-11-08T23:37:59.081Z,41.13
2017-11-08T23:40:26.534Z,46.53
2017-11-08T23:43:00.461Z,42.93
2017-11-08T23:45:27.914Z,52.50
2017-11-08T23:47:55.350Z,40.73
2017-11-08T23:50:22.898Z,44.10
2017-11-08T23:52:50.326Z,49.63
2017-11-08T23:55:19.658Z,39.63
2017-11-08T23:57:47.098Z,40.67
